createdAt,value
2022-10-31T00:01:27.049Z,0.50
2022-10-31T00:03:54.490Z,0.28
2022-10-31T00:06:22.302Z,0.20
2022-10-31T00:08:53.747Z,0.20
2022-10-31T00:11:20.975Z,0.30
2022-10-31T00:13:47.651Z,0.17
2022-10-31T00:16:19.574Z,0.20
2022-10-31T00:18:52.763Z,0.20
2022-10-31T00:21:19.791Z,0.30
2022-10-31T00:23:46.990Z,0.20
2022-10-31T00:26:13.840Z,0.20
2022-10-31T00:28:40.430Z,0.63
2022-10-31T00:31:09.600Z,0.20
2022-10-31T00:33:37.651Z,0.20
2022-10-31T00:36:05.838Z,0.20
2022-10-31T00:38:33.389Z,0.30
2022-10-31T00:41:00.384Z,0.20
2022-10-31T00:43:26.995Z,0.20
2022-10-31T00:45:53.708Z,0.30
2022-10-31T00:48:20.354Z,0.40
2022-10-31T00:50:48.937Z,0.38
2022-10-31T00:53:15.678Z,0.17
2022-10-31T00:55:42.374Z,0.20
2022-10-31T00:58:09.105Z,0.20
2022-10-31T01:00:36.008Z,0.20
2022-10-31T01:03:03.263Z,0.20
2022-10-31T01:05:30.093Z,0.20
2022-10-31T01:07:56.782Z,0.20
2022-10-31T01:10:23.894Z,0.30
2022-10-31T01:12:52.060Z,0.20
2022-10-31T01:15:23.086Z,0.20
2022-10-31T01:17:50.193Z,0.20
2022-10-31T01:20:17.909Z,0.20
2022-10-31T01:22:44.759Z,0.28
2022-10-31T01:25:11.837Z,0.30
2022-10-31T01:27:38.518Z,0.15
2022-10-31T01:30:08.055Z,0.30
2022-10-31T01:32:34.728Z,0.28
2022-10-31T01:35:01.482Z,0.20
2022-10-31T01:37:28.307Z,0.22
2022-10-31T01:39:55.155Z,0.30
2022-10-31T01:42:23.527Z,0.30
2022-10-31T01:45:00.538Z,0.30
2022-10-31T01:47:56.800Z,0.40
2022-10-31T01:50:36.465Z,0.40
2022-10-31T01:53:03.757Z,0.30
2022-10-31T01:55:41.284Z,0.52
2022-10-31T01:58:15.717Z,0.65
2022-10-31T02:00:49.741Z,1.10
2022-10-31T02:03:18.070Z,0.90
2022-10-31T02:05:44.920Z,0.90
2022-10-31T02:08:22.676Z,0.93
2022-10-31T02:10:50.773Z,0.82
2022-10-31T02:13:18.352Z,0.70
2022-10-31T02:18:18.290Z,0.88
2022-10-31T02:21:19.613Z,1.70
2022-10-31T02:24:25.783Z,2.53
2022-10-31T02:27:08.265Z,2.55
2022-10-31T02:29:50.269Z,2.85
2022-10-31T02:32:34.584Z,3.45
2022-10-31T02:35:39.244Z,3.22
2022-10-31T02:38:27.161Z,3.20
2022-10-31T02:41:04.458Z,2.50
2022-10-31T02:44:07.047Z,2.85
2022-10-31T02:46:49.285Z,2.15
2022-10-31T02:49:39.501Z,1.50
2022-10-31T02:52:36.167Z,1.40
2022-10-31T02:55:34.003Z,1.40
2022-10-31T02:58:07.810Z,1.60
2022-10-31T03:00:49.731Z,2.40
2022-10-31T03:03:25.200Z,2.10
2022-10-31T03:05:54.635Z,2.83
2022-10-31T03:08:45.486Z,3.22
2022-10-31T03:11:12.876Z,2.67
2022-10-31T03:13:48.325Z,3.08
2022-10-31T03:16:48.245Z,3.10
2022-10-31T03:19:20.639Z,2.72
2022-10-31T03:21:53.702Z,2.22
2022-10-31T03:24:26.406Z,3.00
2022-10-31T03:27:00.445Z,2.30
2022-10-31T03:29:34.717Z,2.05
2022-10-31T03:32:11.237Z,2.00
2022-10-31T03:34:41.696Z,1.50
2022-10-31T03:37:12.516Z,1.10
2022-10-31T03:39:41.990Z,1.30
2022-10-31T03:42:15.223Z,2.00
2022-10-31T03:44:51.465Z,1.90
2022-10-31T03:47:18.588Z,2.53
2022-10-31T03:49:48.770Z,2.20
2022-10-31T03:52:40.931Z,1.55
2022-10-31T03:55:16.379Z,1.20
2022-10-31T03:57:54.157Z,1.20
2022-10-31T04:00:21.305Z,1.00
2022-10-31T04:02:59.819Z,0.80
2022-10-31T04:05:31.261Z,0.73
2022-10-31T04:08:03.913Z,0.70
2022-10-31T04:10:33.910Z,0.68
2022-10-31T04:13:07.889Z,0.80
2022-10-31T04:15:54.992Z,1.52
2022-10-31T04:18:26.653Z,2.13
2022-10-31T04:21:07.262Z,3.75
2022-10-31T04:23:35.544Z,3.78
2022-10-31T04:26:12.717Z,3.55
2022-10-31T04:28:39.573Z,4.00
2022-10-31T04:31:06.443Z,2.58
2022-10-31T04:36:03.437Z,3.83
2022-10-31T04:38:30.276Z,3.10
2022-10-31T04:40:57.319Z,2.00
2022-10-31T04:43:42.491Z,1.98
2022-10-31T04:46:09.155Z,2.00
2022-10-31T04:48:36.299Z,2.50
2022-10-31T04:51:05.863Z,4.00
2022-10-31T04:53:32.595Z,5.45
2022-10-31T04:56:17.822Z,4.78
2022-10-31T04:58:47.537Z,5.65
2022-10-31T05:01:14.421Z,5.00
2022-10-31T05:03:41.213Z,4.18
2022-10-31T05:06:08.276Z,3.50
2022-10-31T05:08:35.496Z,3.50
2022-10-31T05:11:05.428Z,3.40
2022-10-31T05:13:34.718Z,4.40
2022-10-31T05:16:04.396Z,3.72
2022-10-31T05:18:40.031Z,5.38
2022-10-31T05:21:25.211Z,5.07
2022-10-31T05:23:54.569Z,5.93
2022-10-31T05:26:24.179Z,4.95
2022-10-31T05:28:51.225Z,3.80
2022-10-31T05:31:17.963Z,3.25
2022-10-31T05:33:44.726Z,2.78
2022-10-31T05:36:30.168Z,2.20
2022-10-31T05:39:03.450Z,1.30
2022-10-31T05:41:40.677Z,1.30
2022-10-31T05:44:20.639Z,0.88
2022-10-31T05:47:11.819Z,0.98
2022-10-31T05:49:56.423Z,0.90
2022-10-31T05:55:32.569Z,0.60
2022-10-31T05:58:12.862Z,0.80
2022-10-31T06:00:43.749Z,0.90
2022-10-31T06:03:11.851Z,1.20
2022-10-31T06:05:52.516Z,0.80
2022-10-31T06:08:24.520Z,1.00
2022-10-31T06:10:51.708Z,1.10
2022-10-31T06:13:24.450Z,0.95
2022-10-31T06:15:58.730Z,0.90
2022-10-31T06:18:32.473Z,0.95
2022-10-31T06:21:00.091Z,1.55
2022-10-31T06:23:26.817Z,1.77
2022-10-31T06:26:09.945Z,1.40
2022-10-31T06:28:37.589Z,1.58
2022-10-31T06:31:17.403Z,1.40
2022-10-31T06:33:44.204Z,1.65
2022-10-31T06:36:11.689Z,1.27
2022-10-31T06:38:38.393Z,1.10
2022-10-31T06:41:08.473Z,1.35
2022-10-31T06:43:48.345Z,1.92
2022-10-31T06:46:40.156Z,1.65
2022-10-31T06:49:27.152Z,1.25
2022-10-31T06:51:55.302Z,0.90
2022-10-31T06:54:23.366Z,0.70
2022-10-31T06:56:50.339Z,0.60
2022-10-31T06:59:17.239Z,0.60
2022-10-31T07:02:02.466Z,0.55
2022-10-31T07:04:29.619Z,0.50
2022-10-31T07:06:56.859Z,0.50
2022-10-31T07:09:23.983Z,0.70
2022-10-31T07:11:53.696Z,0.50
2022-10-31T07:14:20.378Z,0.63
2022-10-31T07:16:51.271Z,0.63
2022-10-31T07:19:22.968Z,0.70
2022-10-31T07:21:49.589Z,0.50
2022-10-31T07:24:16.233Z,0.70
2022-10-31T07:26:43.359Z,0.60
2022-10-31T07:29:10.585Z,0.60
2022-10-31T07:31:37.472Z,0.68
2022-10-31T07:34:10.531Z,0.70
2022-10-31T07:37:15.472Z,0.70
2022-10-31T07:39:42.165Z,0.70
2022-10-31T07:42:11.085Z,0.68
2022-10-31T07:44:42.710Z,0.68
2022-10-31T07:47:45.879Z,0.60
2022-10-31T07:50:34.745Z,0.60
2022-10-31T07:53:20.193Z,0.60
2022-10-31T07:55:50.693Z,0.40
2022-10-31T07:58:19.659Z,0.50
2022-10-31T08:00:48.037Z,0.55
2022-10-31T08:03:20.576Z,0.57
2022-10-31T08:06:06.925Z,0.60
2022-10-31T08:08:53.624Z,0.50
2022-10-31T08:11:20.324Z,0.50
2022-10-31T08:13:47.945Z,0.50
2022-10-31T08:16:15.478Z,0.47
2022-10-31T08:18:58.855Z,0.60
2022-10-31T08:21:28.934Z,0.60
2022-10-31T08:23:56.334Z,0.70
2022-10-31T08:26:24.775Z,0.40
2022-10-31T08:28:55.585Z,0.60
2022-10-31T08:31:32.946Z,0.57
2022-10-31T08:34:19.120Z,0.50
2022-10-31T08:37:04.328Z,0.47
2022-10-31T08:39:39.552Z,0.30
2022-10-31T08:42:06.912Z,0.40
2022-10-31T08:44:34.563Z,0.30
2022-10-31T08:47:01.416Z,0.50
2022-10-31T08:49:32.712Z,0.73
2022-10-31T08:51:59.378Z,0.50
2022-10-31T08:54:31.097Z,0.63
2022-10-31T08:56:57.791Z,0.70
2022-10-31T08:59:39.155Z,0.77
2022-10-31T09:02:26.786Z,0.50
2022-10-31T09:04:59.131Z,0.60
2022-10-31T09:07:26.029Z,0.57
2022-10-31T09:09:54.064Z,1.10
2022-10-31T09:12:21.139Z,0.60
2022-10-31T09:14:47.779Z,0.50
2022-10-31T09:17:31.604Z,0.60
2022-10-31T09:20:31.538Z,0.40
2022-10-31T09:23:01.177Z,0.45
2022-10-31T09:25:31.028Z,0.50
2022-10-31T09:28:18.890Z,0.50
2022-10-31T09:30:48.466Z,0.60
2022-10-31T09:33:21.453Z,0.63
2022-10-31T09:36:01.256Z,0.80
2022-10-31T09:38:27.920Z,0.50
2022-10-31T09:41:24.445Z,0.50
2022-10-31T09:44:03.275Z,0.50
2022-10-31T09:46:48.647Z,0.40
2022-10-31T09:49:45.845Z,0.30
2022-10-31T09:52:32.277Z,0.40
2022-10-31T09:55:17.484Z,0.40
2022-10-31T09:57:45.702Z,0.50
2022-10-31T10:00:18.815Z,0.40
2022-10-31T10:02:49.285Z,0.40
2022-10-31T10:05:22.247Z,0.40
2022-10-31T10:08:17.661Z,0.50
2022-10-31T10:11:33.487Z,0.50
2022-10-31T10:14:21.277Z,0.40
2022-10-31T10:16:59.794Z,0.40
2022-10-31T10:19:33.884Z,0.40
2022-10-31T10:22:23.875Z,0.40
2022-10-31T10:27:35.316Z,0.50
2022-10-31T10:30:14.837Z,0.80
2022-10-31T10:32:50.912Z,0.70
2022-10-31T10:35:27.420Z,0.50
2022-10-31T10:38:13.190Z,0.40
2022-10-31T10:40:41.419Z,0.55
2022-10-31T10:43:29.917Z,0.50
2022-10-31T10:46:24.475Z,0.47
2022-10-31T10:49:12.921Z,0.47
2022-10-31T10:55:00.363Z,0.50
2022-10-31T10:57:51.100Z,0.63
2022-10-31T11:00:29.755Z,0.90
2022-10-31T11:02:57.065Z,0.57
2022-10-31T11:05:54.833Z,0.45
2022-10-31T11:08:27.528Z,0.38
2022-10-31T11:11:19.032Z,0.40
2022-10-31T11:13:49.091Z,0.52
2022-10-31T11:16:27.866Z,0.40
2022-10-31T11:18:55.141Z,0.60
2022-10-31T11:21:30.343Z,0.55
2022-10-31T11:24:15.471Z,0.60
2022-10-31T11:26:44.032Z,0.40
2022-10-31T11:29:22.416Z,0.63
2022-10-31T11:31:53.537Z,1.70
2022-10-31T11:34:31.054Z,1.80
2022-10-31T11:37:15.253Z,0.95
2022-10-31T11:39:44.810Z,0.50
2022-10-31T11:42:12.522Z,0.50
2022-10-31T11:44:43.877Z,0.60
2022-10-31T11:47:16.214Z,0.60
2022-10-31T11:49:46.489Z,0.50
2022-10-31T11:52:31.781Z,0.43
2022-10-31T11:55:01.883Z,0.43
2022-10-31T11:57:32.189Z,0.80
2022-10-31T12:00:01.322Z,0.80
2022-10-31T12:02:28.607Z,1.27
2022-10-31T12:05:01.724Z,1.08
2022-10-31T12:07:28.586Z,1.10
2022-10-31T12:09:56.295Z,0.80
2022-10-31T12:12:22.964Z,0.90
2022-10-31T12:14:58.361Z,1.30
2022-10-31T12:17:46.351Z,1.83
2022-10-31T12:20:30.232Z,1.73
2022-10-31T12:23:32.219Z,1.10
2022-10-31T12:26:42.103Z,1.50
2022-10-31T12:29:47.659Z,1.50
2022-10-31T12:32:41.709Z,1.60
2022-10-31T12:35:26.020Z,2.33
2022-10-31T12:38:02.440Z,2.60
2022-10-31T12:41:00.309Z,1.55
2022-10-31T12:43:45.877Z,1.00
2022-10-31T12:46:25.632Z,0.73
2022-10-31T12:49:16.098Z,0.65
2022-10-31T12:52:00.810Z,0.80
2022-10-31T12:54:49.528Z,0.80
2022-10-31T12:57:30.124Z,1.47
2022-10-31T13:00:19.086Z,1.00
2022-10-31T13:02:51.374Z,0.70
2022-10-31T13:05:32.124Z,0.80
2022-10-31T13:08:05.644Z,0.90
2022-10-31T13:10:49.035Z,1.90
2022-10-31T13:13:20.679Z,2.00
2022-10-31T13:15:54.970Z,1.10
2022-10-31T13:18:35.756Z,0.90
2022-10-31T13:21:13.728Z,0.80
2022-10-31T13:23:56.570Z,1.40
2022-10-31T13:26:36.538Z,2.10
2022-10-31T13:31:32.647Z,1.50
2022-10-31T13:34:05.522Z,0.93
2022-10-31T13:36:47.049Z,0.80
2022-10-31T13:39:40.154Z,0.70
2022-10-31T13:42:21.466Z,1.10
2022-10-31T13:44:48.153Z,1.65
2022-10-31T13:47:28.237Z,1.85
2022-10-31T13:52:46.879Z,1.10
2022-10-31T13:55:35.587Z,1.20
2022-10-31T13:58:05.667Z,1.00
2022-10-31T14:03:03.036Z,1.10
2022-10-31T14:05:36.902Z,1.60
2022-10-31T14:08:05.745Z,1.40
2022-10-31T14:10:36.412Z,1.20
2022-10-31T14:13:17.502Z,1.35
2022-10-31T14:15:55.378Z,1.00
2022-10-31T14:18:38.908Z,1.13
2022-10-31T14:21:23.475Z,1.52
2022-10-31T14:23:54.133Z,2.28
2022-10-31T14:26:27.740Z,2.47
2022-10-31T14:29:00.340Z,1.92
2022-10-31T14:31:39.594Z,1.65
2022-10-31T14:34:24.478Z,1.40
2022-10-31T14:37:24.624Z,1.48
2022-10-31T14:39:57.050Z,1.60
2022-10-31T14:43:01.406Z,1.60
2022-10-31T14:45:41.931Z,2.20
2022-10-31T14:48:40.191Z,2.53
2022-10-31T14:51:22.385Z,3.03
2022-10-31T14:53:57.094Z,2.90
2022-10-31T14:56:31.005Z,2.70
2022-10-31T14:59:05.498Z,2.42
2022-10-31T15:01:36.377Z,1.98
2022-10-31T15:04:23.820Z,2.05
2022-10-31T15:06:59.009Z,1.50
2022-10-31T15:09:31.597Z,1.67
2022-10-31T15:12:17.663Z,1.90
2022-10-31T15:14:44.920Z,1.73
2022-10-31T15:17:12.633Z,1.98
2022-10-31T15:19:39.838Z,1.70
2022-10-31T15:22:06.664Z,1.58
2022-10-31T15:24:36.375Z,2.60
2022-10-31T15:27:05.283Z,2.60
2022-10-31T15:29:32.933Z,3.13
2022-10-31T15:32:02.056Z,2.60
2022-10-31T15:34:38.348Z,2.95
2022-10-31T15:37:06.034Z,2.80
2022-10-31T15:39:32.785Z,2.80
2022-10-31T15:42:00.642Z,3.40
2022-10-31T15:44:31.498Z,3.90
2022-10-31T15:47:04.440Z,4.25
2022-10-31T15:49:41.766Z,4.13
2022-10-31T15:52:16.460Z,4.30
2022-10-31T15:54:54.248Z,4.13
2022-10-31T15:57:21.203Z,5.13
2022-10-31T15:59:49.962Z,5.18
2022-10-31T16:02:24.576Z,4.78
2022-10-31T16:04:58.531Z,4.40
2022-10-31T16:07:26.425Z,5.43
2022-10-31T16:10:01.486Z,5.10
2022-10-31T16:12:37.597Z,4.88
2022-10-31T16:15:06.035Z,5.00
2022-10-31T16:17:33.070Z,3.10
2022-10-31T16:20:06.278Z,2.90
2022-10-31T16:22:36.822Z,2.85
2022-10-31T16:25:13.633Z,2.30
2022-10-31T16:27:41.625Z,2.70
2022-10-31T16:30:47.748Z,2.63
2022-10-31T16:33:36.970Z,2.40
2022-10-31T16:36:34.834Z,2.20
2022-10-31T16:39:02.204Z,2.78
2022-10-31T16:41:29.434Z,3.03
2022-10-31T16:43:56.165Z,3.90
2022-10-31T16:46:28.879Z,4.38
2022-10-31T16:48:55.845Z,5.20
2022-10-31T16:51:22.713Z,7.35
2022-10-31T16:53:52.843Z,7.97
2022-10-31T16:56:27.585Z,6.63
2022-10-31T16:58:54.673Z,7.53
2022-10-31T17:01:21.648Z,7.35
2022-10-31T17:03:48.977Z,8.80
2022-10-31T17:06:16.045Z,6.22
2022-10-31T17:08:46.235Z,6.45
2022-10-31T17:11:19.886Z,5.95
2022-10-31T17:13:46.815Z,7.22
2022-10-31T17:16:15.468Z,6.60
2022-10-31T17:18:43.812Z,6.60
2022-10-31T17:21:23.390Z,4.70
2022-10-31T17:23:51.549Z,4.90
2022-10-31T17:26:19.364Z,4.10
2022-10-31T17:28:46.319Z,3.67
2022-10-31T17:31:27.180Z,2.70
2022-10-31T17:34:01.954Z,2.72
2022-10-31T17:36:30.505Z,2.70
2022-10-31T17:38:57.481Z,2.22
2022-10-31T17:41:24.228Z,1.88
2022-10-31T17:43:58.968Z,1.85
2022-10-31T17:46:26.279Z,2.00
2022-10-31T17:48:53.032Z,1.83
2022-10-31T17:51:19.759Z,2.20
2022-10-31T17:53:46.394Z,2.30
2022-10-31T17:56:13.500Z,2.17
2022-10-31T17:58:40.285Z,2.10
2022-10-31T18:01:10.191Z,2.38
2022-10-31T18:03:37.770Z,2.10
2022-10-31T18:06:05.738Z,1.70
2022-10-31T18:08:35.269Z,1.70
2022-10-31T18:11:14.823Z,1.58
2022-10-31T18:13:41.884Z,1.40
2022-10-31T18:16:14.195Z,1.30
2022-10-31T18:18:41.330Z,1.30
2022-10-31T18:21:08.374Z,1.20
2022-10-31T18:23:36.153Z,1.13
2022-10-31T18:26:03.202Z,0.95
2022-10-31T18:28:31.843Z,0.90
2022-10-31T18:31:00.524Z,1.10
2022-10-31T18:33:27.510Z,1.10
2022-10-31T18:35:54.893Z,1.13
2022-10-31T18:38:21.745Z,1.10
2022-10-31T18:40:48.853Z,1.10
2022-10-31T18:43:15.560Z,1.13
2022-10-31T18:45:47.467Z,1.00
2022-10-31T18:48:17.285Z,1.10
2022-10-31T18:50:44.071Z,1.10
2022-10-31T18:53:10.790Z,1.08
2022-10-31T18:55:47.677Z,1.20
2022-10-31T18:58:19.576Z,1.00
2022-10-31T19:00:47.803Z,1.00
2022-10-31T19:03:15.027Z,1.10
2022-10-31T19:05:41.797Z,1.02
2022-10-31T19:08:09.445Z,1.20
2022-10-31T19:10:40.706Z,1.30
2022-10-31T19:13:07.650Z,1.05
2022-10-31T19:15:35.821Z,1.02
2022-10-31T19:18:03.095Z,1.20
2022-10-31T19:20:30.712Z,1.20
2022-10-31T19:22:57.802Z,1.20
2022-10-31T19:25:24.818Z,1.40
2022-10-31T19:27:51.368Z,1.10
2022-10-31T19:30:18.182Z,1.20
2022-10-31T19:32:44.806Z,1.50
2022-10-31T19:35:11.577Z,1.30
2022-10-31T19:37:40.170Z,1.50
2022-10-31T19:40:08.870Z,1.90
2022-10-31T19:42:35.650Z,2.00
2022-10-31T19:45:03.567Z,3.10
2022-10-31T19:47:30.547Z,2.83
2022-10-31T19:49:57.290Z,2.20
2022-10-31T19:52:23.925Z,2.20
2022-10-31T19:54:50.798Z,1.77
2022-10-31T19:57:20.504Z,1.67
2022-10-31T19:59:53.297Z,1.63
2022-10-31T20:02:20.997Z,1.48
2022-10-31T20:04:47.609Z,1.85
2022-10-31T20:07:14.467Z,1.38
2022-10-31T20:09:44.656Z,1.45
2022-10-31T20:12:14.919Z,1.38
2022-10-31T20:17:12.478Z,1.50
2022-10-31T20:19:40.341Z,1.70
2022-10-31T20:22:08.016Z,1.38
2022-10-31T20:24:37.375Z,1.60
2022-10-31T20:27:06.455Z,1.57
2022-10-31T20:29:33.569Z,1.43
2022-10-31T20:32:01.035Z,1.40
2022-10-31T20:34:29.539Z,1.50
2022-10-31T20:36:56.935Z,1.30
2022-10-31T20:39:23.857Z,1.70
2022-10-31T20:41:51.519Z,1.40
2022-10-31T20:44:18.440Z,1.40
2022-10-31T20:46:46.076Z,1.70
2022-10-31T20:49:12.978Z,1.30
2022-10-31T20:51:40.296Z,1.52
2022-10-31T20:54:07.591Z,1.70
2022-10-31T20:56:34.340Z,1.30
2022-10-31T20:59:01.214Z,1.50
2022-10-31T21:01:31.083Z,1.70
2022-10-31T21:06:28.942Z,1.30
2022-10-31T21:08:58.522Z,1.33
2022-10-31T21:11:28.089Z,1.25
2022-10-31T21:13:54.993Z,1.25
2022-10-31T21:16:24.341Z,1.38
2022-10-31T21:18:52.926Z,3.53
2022-10-31T21:21:29.214Z,1.58
2022-10-31T21:24:05.523Z,1.50
2022-10-31T21:26:36.306Z,1.38
2022-10-31T21:29:05.321Z,1.45
2022-10-31T21:31:33.389Z,1.60
2022-10-31T21:34:00.171Z,1.70
2022-10-31T21:36:26.981Z,1.33
2022-10-31T21:38:54.938Z,1.38
2022-10-31T21:41:23.074Z,1.20
2022-10-31T21:43:51.763Z,1.35
2022-10-31T21:46:21.144Z,1.50
2022-10-31T21:48:48.314Z,2.00
2022-10-31T21:51:22.444Z,1.63
2022-10-31T21:54:08.358Z,1.52
2022-10-31T21:56:35.830Z,1.65
2022-10-31T21:59:04.848Z,1.52
2022-10-31T22:01:32.057Z,1.70
2022-10-31T22:03:59.103Z,2.10
2022-10-31T22:06:27.376Z,1.80
2022-10-31T22:08:54.440Z,1.73
2022-10-31T22:11:21.363Z,1.77
2022-10-31T22:13:49.607Z,1.90
2022-10-31T22:16:23.168Z,1.95
2022-10-31T22:18:54.918Z,1.85
2022-10-31T22:21:26.101Z,2.00
2022-10-31T22:24:01.880Z,2.00
2022-10-31T22:26:32.373Z,1.65
2022-10-31T22:29:02.400Z,2.40
2022-10-31T22:31:30.764Z,2.17
2022-10-31T22:33:58.006Z,1.73
2022-10-31T22:36:27.525Z,1.95
2022-10-31T22:38:54.220Z,1.77
2022-10-31T22:41:32.411Z,2.13
2022-10-31T22:43:59.518Z,1.70
2022-10-31T22:46:28.614Z,1.90
2022-10-31T22:48:58.808Z,2.00
2022-10-31T22:51:32.016Z,1.80
2022-10-31T22:53:59.368Z,2.17
2022-10-31T22:56:29.195Z,1.98
2022-10-31T22:58:56.434Z,2.22
2022-10-31T23:01:26.042Z,2.22
2022-10-31T23:03:53.070Z,2.25
2022-10-31T23:06:22.082Z,2.00
2022-10-31T23:08:50.127Z,2.00
2022-10-31T23:11:34.555Z,2.20
2022-10-31T23:14:14.330Z,1.98
2022-10-31T23:16:44.350Z,2.17
2022-10-31T23:19:14.939Z,2.00
2022-10-31T23:22:02.292Z,2.15
2022-10-31T23:24:36.680Z,2.20
2022-10-31T23:27:13.405Z,2.20
2022-10-31T23:29:49.611Z,2.22
2022-10-31T23:32:21.087Z,2.10
2022-10-31T23:34:50.048Z,2.30
2022-10-31T23:37:18.676Z,2.40
2022-10-31T23:39:45.401Z,2.42
2022-10-31T23:42:12.312Z,2.30
2022-10-31T23:44:38.982Z,2.40
2022-10-31T23:47:06.271Z,2.72
2022-10-31T23:49:33.014Z,2.28
2022-10-31T23:51:59.815Z,2.15
2022-10-31T23:54:27.249Z,2.47
2022-10-31T23:56:54.920Z,2.42
2022-10-31T23:59:22.846Z,2.10
